Aérodrome :
LOGIN :

S'inscrire | Disclaimer

   EN    FR    IT 

 










Légende :    VFR   VFR Marginal   IFR   IFR Intensif   IFR Très Intensif
Visi : 
Plafond : 
>= 8 km
>= 3000ft
5 à 8 km
1000 à 3000 ft
1500m à 5 km
500 à 1000 ft
800 à 1500m
200 à 500 ft
< 800m
< 200 ft
Symboles :   Orages  Brouillard  Fortes neiges  Fortes précipitations  Vent > 20 kt
SIGMETs :   Divers  Orages  Givrage  Turbulence  Onde Orograph.  Cendres Volcan.






- Altitude de l'aérodrome : 1966 ft
- Code IATA : SGE


EDGS - Siegerland

DERNIER METAR :
  • 171620Z 28007KT 0700 0200E R31/0800V1900U FZFG VV/// M01/M01 Q1017

METARs EXPIRÉS :
  • 171550Z 29008KT 0300 R31/0400V0550N FZFG VV/// M01/M01 Q1017
  • 171520Z 30008KT 0250 R31/0350N FZFG VV/// M01/M01 Q1017
  • 171450Z 29009KT 0250 R31/0350V0500N FZFG VV/// M01/M01 Q1016

TAF TAF EDGS
Valide du 17 à 15h jusqu'au 18 à 00h UTC


171400Z 1715/1724 28007KT 0300 FZFG OVC001
BECMG 1715/1718 2000 BR BKN003
TEMPO 1715/1724 3500 -SN
PROB30
TEMPO 1715/1724 -FZDZ



MET'MAP, la Météo Aéronautique d'un coup d'oeil ! - Copyright ORBIFLY Décembre 2007 - Disclaimer

ORBIFLY MET'MAP TEAM :

Programmation & Développement : Alexandra Zaïnal
Sur une idée originale de : Baudouin d'Aumeries
Assistance à la programmation : Marc-Olivier Méhu
Soutien technique & logistique : Manuel Goepfert

Contact : metmap@orbifly.com




SOURCES & CREDITS :

   NOAA